createdAt,value
2019-01-27T00:02:15.463Z,8.03
2019-01-27T00:04:43.986Z,12.98
2019-01-27T00:07:12.517Z,8.95
2019-01-27T00:12:14.608Z,12.65
2019-01-27T00:14:43.056Z,9.65
2019-01-27T00:17:11.486Z,9.58
2019-01-27T00:19:40.276Z,10.30
2019-01-27T00:22:08.713Z,16.20
2019-01-27T00:24:37.747Z,23.00
2019-01-27T00:27:07.453Z,10.18
2019-01-27T00:29:36.239Z,19.48
2019-01-27T00:32:05.034Z,22.25
2019-01-27T00:34:33.480Z,19.98
2019-01-27T00:37:01.921Z,15.40
2019-01-27T00:39:30.711Z,12.95
2019-01-27T00:41:59.145Z,12.73
2019-01-27T00:44:27.807Z,12.82
2019-01-27T00:46:56.248Z,12.00
2019-01-27T00:49:24.983Z,14.03
2019-01-27T00:51:53.760Z,11.15
2019-01-27T00:54:22.211Z,12.07
2019-01-27T00:56:50.644Z,10.40
2019-01-27T00:59:20.339Z,12.78
2019-01-27T01:01:48.833Z,13.13
2019-01-27T01:04:17.845Z,17.48
2019-01-27T01:06:46.280Z,19.05
2019-01-27T01:09:14.763Z,14.03
2019-01-27T01:11:43.756Z,19.02
2019-01-27T01:14:12.176Z,19.12
2019-01-27T01:16:40.952Z,15.10
2019-01-27T01:19:09.407Z,18.10
2019-01-27T01:21:37.843Z,15.53
2019-01-27T01:24:06.300Z,17.62
2019-01-27T01:26:34.765Z,17.05
2019-01-27T01:29:03.198Z,15.68
2019-01-27T01:31:31.657Z,17.17
2019-01-27T01:34:00.433Z,14.35
2019-01-27T01:36:29.144Z,15.13
2019-01-27T01:38:57.579Z,14.73
2019-01-27T01:41:26.275Z,18.02
2019-01-27T01:43:54.987Z,15.25
2019-01-27T01:46:23.683Z,15.70
2019-01-27T01:48:52.443Z,15.32
2019-01-27T01:51:20.874Z,12.25
2019-01-27T01:53:49.305Z,13.30
2019-01-27T01:56:17.768Z,16.90
2019-01-27T01:58:46.496Z,13.55
2019-01-27T02:01:14.954Z,15.88
2019-01-27T02:03:43.409Z,13.03
2019-01-27T02:06:12.036Z,18.50
2019-01-27T02:08:40.492Z,12.53
2019-01-27T02:11:09.020Z,14.75
2019-01-27T02:13:37.457Z,13.13
2019-01-27T02:16:09.755Z,20.52
2019-01-27T02:18:39.246Z,11.22
2019-01-27T02:21:08.559Z,11.70
2019-01-27T02:23:37.227Z,12.18
2019-01-27T02:26:07.697Z,14.20
2019-01-27T02:28:36.178Z,10.88
2019-01-27T02:31:04.654Z,15.28
2019-01-27T02:33:38.190Z,15.32
2019-01-27T02:36:06.910Z,12.25
2019-01-27T02:38:35.328Z,12.43
2019-01-27T02:41:03.772Z,11.10
2019-01-27T02:43:32.452Z,11.83
2019-01-27T02:46:01.249Z,11.85
2019-01-27T02:48:29.688Z,13.60
2019-01-27T02:50:58.136Z,11.68
2019-01-27T02:53:26.818Z,15.58
2019-01-27T02:55:55.877Z,13.65
2019-01-27T02:58:24.569Z,11.22
2019-01-27T03:00:53.289Z,11.10
2019-01-27T03:03:21.730Z,10.00
2019-01-27T03:06:05.565Z,11.53
2019-01-27T03:08:53.309Z,11.95
2019-01-27T03:11:21.749Z,12.35
2019-01-27T03:13:50.452Z,12.73
2019-01-27T03:16:19.240Z,12.68
2019-01-27T03:18:47.713Z,13.28
2019-01-27T03:21:16.274Z,11.33
2019-01-27T03:23:44.695Z,13.10
2019-01-27T03:26:13.142Z,13.30
2019-01-27T03:28:41.643Z,12.05
2019-01-27T03:31:10.069Z,12.85
2019-01-27T03:33:38.517Z,13.18
2019-01-27T03:36:06.968Z,13.50
2019-01-27T03:38:35.414Z,11.50
2019-01-27T03:41:03.854Z,11.90
2019-01-27T03:43:32.803Z,13.15
2019-01-27T03:46:01.550Z,12.23
2019-01-27T03:48:30.145Z,12.80
2019-01-27T03:50:58.559Z,12.50
2019-01-27T03:53:27.279Z,11.18
2019-01-27T03:55:56.209Z,11.15
2019-01-27T03:58:24.679Z,11.35
2019-01-27T04:00:53.100Z,10.53
2019-01-27T04:03:21.529Z,10.15
2019-01-27T04:05:49.961Z,10.82
2019-01-27T04:08:18.416Z,10.15
2019-01-27T04:10:47.268Z,11.38
2019-01-27T04:13:16.033Z,10.75
2019-01-27T04:15:44.541Z,11.30
2019-01-27T04:18:13.025Z,11.35
2019-01-27T04:20:42.041Z,12.20
2019-01-27T04:23:11.150Z,11.38
2019-01-27T04:25:42.449Z,11.55
2019-01-27T04:28:11.567Z,12.00
2019-01-27T04:30:39.949Z,12.10
2019-01-27T04:33:08.409Z,12.80
2019-01-27T04:35:37.191Z,12.90
2019-01-27T04:38:05.939Z,11.68
2019-01-27T04:40:34.719Z,12.53
2019-01-27T04:43:03.150Z,11.83
2019-01-27T04:45:36.505Z,12.98
2019-01-27T04:48:08.337Z,12.28
2019-01-27T04:50:36.685Z,11.95
2019-01-27T04:53:05.862Z,12.13
2019-01-27T04:55:34.950Z,11.25
2019-01-27T04:58:03.386Z,12.18
2019-01-27T05:00:31.848Z,10.55
2019-01-27T05:03:06.910Z,11.40
2019-01-27T05:05:35.370Z,11.93
2019-01-27T05:08:04.128Z,11.30
2019-01-27T05:10:32.585Z,12.23
2019-01-27T05:13:01.013Z,10.78
2019-01-27T05:15:30.287Z,10.82
2019-01-27T05:17:58.708Z,11.30
2019-01-27T05:20:27.150Z,9.63
2019-01-27T05:22:55.586Z,10.68
2019-01-27T05:27:57.641Z,9.30
2019-01-27T05:30:27.375Z,9.78
2019-01-27T05:32:56.090Z,10.00
2019-01-27T05:35:24.851Z,9.38
2019-01-27T05:37:53.292Z,9.30
2019-01-27T05:40:21.828Z,9.53
2019-01-27T05:42:50.547Z,9.25
2019-01-27T05:45:19.002Z,10.95
2019-01-27T05:47:47.440Z,9.63
2019-01-27T05:50:15.901Z,8.70
2019-01-27T05:52:44.383Z,11.48
2019-01-27T05:55:13.890Z,8.98
2019-01-27T05:57:42.318Z,9.80
2019-01-27T06:00:17.150Z,8.88
2019-01-27T06:02:45.573Z,8.18
2019-01-27T06:05:14.009Z,8.68
2019-01-27T06:07:42.438Z,8.28
2019-01-27T06:10:11.633Z,8.93
2019-01-27T06:12:40.411Z,8.28
2019-01-27T06:15:10.506Z,7.65
2019-01-27T06:17:38.925Z,7.03
2019-01-27T06:20:09.342Z,8.60
2019-01-27T06:22:37.777Z,8.58
2019-01-27T06:25:08.307Z,8.75
2019-01-27T06:27:37.010Z,7.00
2019-01-27T06:30:08.437Z,6.95
2019-01-27T06:32:46.685Z,7.80
2019-01-27T06:35:15.166Z,7.33
2019-01-27T06:37:44.140Z,7.75
2019-01-27T06:40:12.584Z,6.78
2019-01-27T06:42:41.085Z,6.53
2019-01-27T06:45:09.810Z,7.03
2019-01-27T06:47:38.234Z,6.20
2019-01-27T06:50:07.591Z,6.55
2019-01-27T06:52:36.332Z,6.70
2019-01-27T06:55:06.008Z,6.12
2019-01-27T06:57:34.434Z,6.22
2019-01-27T07:00:30.787Z,6.53
2019-01-27T07:03:07.057Z,7.17
2019-01-27T07:05:56.085Z,6.25
2019-01-27T07:08:45.376Z,6.53
2019-01-27T07:11:31.745Z,6.35
2019-01-27T07:14:17.385Z,7.10
2019-01-27T07:17:10.714Z,7.08
2019-01-27T07:20:02.637Z,7.00
2019-01-27T07:22:50.588Z,6.30
2019-01-27T07:25:40.601Z,6.50
2019-01-27T07:28:26.970Z,7.62
2019-01-27T07:31:20.951Z,8.30
2019-01-27T07:34:00.823Z,7.87
2019-01-27T07:36:57.355Z,8.15
2019-01-27T07:39:30.661Z,9.55
2019-01-27T07:42:27.580Z,9.38
2019-01-27T07:45:02.637Z,9.83
2019-01-27T07:47:49.247Z,9.65
2019-01-27T07:50:36.785Z,10.10
2019-01-27T07:53:24.186Z,10.35
2019-01-27T07:56:04.366Z,11.28
2019-01-27T07:58:38.048Z,10.38
2019-01-27T08:01:18.728Z,13.35
2019-01-27T08:03:53.337Z,12.70
2019-01-27T08:06:33.711Z,15.58
2019-01-27T08:09:21.203Z,37.67
2019-01-27T08:12:01.389Z,10.50
2019-01-27T08:14:49.722Z,11.55
2019-01-27T08:17:34.115Z,11.33
2019-01-27T08:20:12.900Z,11.78
2019-01-27T08:23:03.206Z,11.22
2019-01-27T08:25:36.696Z,19.75
2019-01-27T08:28:18.203Z,12.35
2019-01-27T08:31:08.790Z,11.93
2019-01-27T08:33:49.546Z,12.50
2019-01-27T08:36:37.632Z,15.88
2019-01-27T08:39:33.251Z,11.08
2019-01-27T08:42:26.735Z,10.78
2019-01-27T08:45:00.898Z,8.68
2019-01-27T08:47:29.626Z,7.50
2019-01-27T08:49:58.056Z,8.60
2019-01-27T08:52:26.474Z,6.87
2019-01-27T08:54:55.468Z,6.40
2019-01-27T08:57:24.561Z,6.10
2019-01-27T08:59:53.403Z,5.50
2019-01-27T09:02:39.373Z,7.95
2019-01-27T09:05:28.624Z,7.62
2019-01-27T09:08:07.408Z,8.65
2019-01-27T09:10:53.504Z,9.28
2019-01-27T09:13:28.905Z,10.50
2019-01-27T09:16:25.178Z,9.15
2019-01-27T09:19:12.663Z,8.23
2019-01-27T09:21:58.978Z,9.10
2019-01-27T09:24:46.444Z,6.95
2019-01-27T09:27:24.625Z,8.75
2019-01-27T09:30:14.939Z,22.42
2019-01-27T09:33:02.677Z,39.53
2019-01-27T09:35:40.843Z,55.30
2019-01-27T09:38:23.670Z,25.60
2019-01-27T09:41:09.874Z,14.40
2019-01-27T09:43:57.680Z,25.10
2019-01-27T09:46:43.874Z,44.38
2019-01-27T09:49:22.728Z,22.22
2019-01-27T09:52:01.124Z,11.65
2019-01-27T09:54:39.965Z,11.00
2019-01-27T09:57:14.474Z,10.65
2019-01-27T10:00:03.651Z,10.05
2019-01-27T10:03:00.370Z,8.93
2019-01-27T10:05:46.374Z,9.00
2019-01-27T10:08:25.521Z,8.38
2019-01-27T10:11:03.104Z,9.38
2019-01-27T10:13:49.567Z,8.53
2019-01-27T10:16:25.773Z,8.03
2019-01-27T10:19:07.765Z,8.05
2019-01-27T10:21:54.063Z,9.30
2019-01-27T10:24:40.777Z,7.55
2019-01-27T10:27:18.452Z,8.08
2019-01-27T10:30:02.654Z,11.00
2019-01-27T10:32:48.931Z,7.78
2019-01-27T10:35:35.020Z,9.43
2019-01-27T10:38:08.708Z,8.45
2019-01-27T10:40:41.083Z,7.97
2019-01-27T10:43:41.077Z,8.18
2019-01-27T10:46:18.380Z,7.28
2019-01-27T10:49:06.740Z,8.28
2019-01-27T10:51:59.058Z,7.67
2019-01-27T10:55:04.828Z,8.18
2019-01-27T10:57:43.632Z,10.03
2019-01-27T11:00:26.482Z,7.12
2019-01-27T11:03:10.612Z,10.45
2019-01-27T11:06:01.173Z,11.15
2019-01-27T11:08:53.144Z,4.70
2019-01-27T11:11:33.922Z,5.53
2019-01-27T11:14:20.495Z,3.92
2019-01-27T11:17:06.920Z,4.05
2019-01-27T11:19:53.269Z,4.67
2019-01-27T11:22:49.888Z,3.45
2019-01-27T11:25:37.354Z,3.52
2019-01-27T11:28:13.445Z,4.40
2019-01-27T11:30:55.623Z,3.15
2019-01-27T11:33:37.447Z,4.35
2019-01-27T11:36:31.258Z,3.75
2019-01-27T11:39:12.375Z,2.55
2019-01-27T11:42:03.071Z,4.12
2019-01-27T11:44:49.716Z,2.90
2019-01-27T11:47:27.146Z,4.53
2019-01-27T11:50:11.624Z,4.35
2019-01-27T11:52:43.357Z,4.95
2019-01-27T11:55:11.839Z,3.25
2019-01-27T11:57:40.300Z,3.67
2019-01-27T12:00:12.262Z,5.20
2019-01-27T12:02:46.533Z,1.90
2019-01-27T12:05:11.351Z,1.50
2019-01-27T12:07:39.775Z,2.17
2019-01-27T12:10:11.793Z,2.60
2019-01-27T12:12:40.816Z,1.52
2019-01-27T12:15:12.341Z,1.80
2019-01-27T12:17:41.100Z,1.98
2019-01-27T12:20:09.838Z,1.40
2019-01-27T12:22:38.584Z,2.35
2019-01-27T12:25:08.865Z,3.00
2019-01-27T12:27:37.552Z,1.90
2019-01-27T12:30:08.539Z,1.80
2019-01-27T12:32:38.386Z,1.80
2019-01-27T12:35:07.734Z,1.95
2019-01-27T12:37:36.169Z,2.30
2019-01-27T12:40:05.972Z,2.87
2019-01-27T12:42:34.405Z,3.65
2019-01-27T12:45:02.834Z,13.60
2019-01-27T12:47:31.291Z,2.87
2019-01-27T12:49:59.728Z,5.90
2019-01-27T12:52:29.013Z,8.15
2019-01-27T12:54:57.700Z,3.92
2019-01-27T12:57:26.124Z,4.78
2019-01-27T12:59:55.101Z,1.90
2019-01-27T13:02:23.534Z,2.37
2019-01-27T13:04:52.065Z,3.60
2019-01-27T13:07:20.499Z,2.50
2019-01-27T13:09:49.023Z,4.40
2019-01-27T13:12:17.541Z,4.08
2019-01-27T13:14:46.305Z,1.47
2019-01-27T13:17:14.756Z,2.42
2019-01-27T13:19:43.740Z,2.65
2019-01-27T13:22:12.546Z,4.55
2019-01-27T13:24:41.032Z,2.42
2019-01-27T13:27:09.468Z,2.77
2019-01-27T13:29:37.894Z,3.62
2019-01-27T13:32:06.328Z,2.58
2019-01-27T13:34:35.324Z,3.65
2019-01-27T13:37:03.787Z,1.90
2019-01-27T13:39:32.208Z,2.80
2019-01-27T13:42:01.031Z,10.88
2019-01-27T13:44:29.459Z,11.43
2019-01-27T13:46:58.252Z,2.22
2019-01-27T13:49:26.869Z,1.60
2019-01-27T13:51:55.585Z,2.55
2019-01-27T13:54:24.026Z,2.92
2019-01-27T13:56:53.143Z,2.67
2019-01-27T13:59:22.806Z,2.37
2019-01-27T14:01:51.250Z,3.95
2019-01-27T14:04:20.028Z,2.00
2019-01-27T14:06:48.444Z,4.80
2019-01-27T14:09:16.922Z,2.47
2019-01-27T14:11:45.757Z,4.85
2019-01-27T14:14:14.522Z,5.65
2019-01-27T14:16:42.995Z,2.45
2019-01-27T14:19:11.604Z,1.50
2019-01-27T14:21:40.699Z,1.95
2019-01-27T14:24:09.136Z,3.17
2019-01-27T14:29:25.096Z,4.20
2019-01-27T14:31:53.723Z,3.02
2019-01-27T14:34:22.468Z,4.67
2019-01-27T14:36:51.599Z,3.25
2019-01-27T14:39:20.105Z,2.47
2019-01-27T14:41:48.515Z,2.65
2019-01-27T14:44:16.958Z,3.22
2019-01-27T14:46:45.372Z,3.62
2019-01-27T14:49:13.823Z,4.20
2019-01-27T14:51:42.243Z,3.20
2019-01-27T14:54:11.118Z,4.58
2019-01-27T14:56:39.559Z,4.35
2019-01-27T14:59:07.998Z,3.20
2019-01-27T15:01:36.421Z,3.45
2019-01-27T15:04:04.855Z,3.52
2019-01-27T15:06:33.276Z,3.67
2019-01-27T15:09:01.828Z,4.17
2019-01-27T15:11:30.308Z,4.80
2019-01-27T15:13:59.102Z,4.97
2019-01-27T15:16:27.982Z,5.00
2019-01-27T15:18:56.732Z,4.55
2019-01-27T15:21:27.084Z,3.92
2019-01-27T15:23:55.645Z,4.62
2019-01-27T15:26:24.158Z,4.10
2019-01-27T15:28:52.816Z,3.67
2019-01-27T15:31:21.248Z,4.80
2019-01-27T15:33:50.272Z,4.03
2019-01-27T15:36:19.060Z,3.95
2019-01-27T15:38:48.777Z,3.17
2019-01-27T15:41:17.202Z,4.00
2019-01-27T15:43:48.735Z,3.65
2019-01-27T15:46:15.769Z,3.85
2019-01-27T15:48:44.223Z,4.42
2019-01-27T15:51:12.754Z,5.10
2019-01-27T15:53:41.273Z,4.45
2019-01-27T15:56:10.076Z,4.15
2019-01-27T15:58:38.762Z,3.92
2019-01-27T16:01:07.786Z,4.37
2019-01-27T16:03:36.509Z,3.83
2019-01-27T16:06:04.956Z,4.05
2019-01-27T16:08:33.364Z,5.78
2019-01-27T16:11:01.822Z,6.85
2019-01-27T16:13:30.246Z,8.45
2019-01-27T16:15:58.818Z,7.60
2019-01-27T16:18:28.137Z,7.80
2019-01-27T16:20:58.934Z,9.65
2019-01-27T16:23:46.281Z,7.87
2019-01-27T16:26:17.608Z,7.15
2019-01-27T16:28:46.409Z,7.42
2019-01-27T16:31:46.264Z,7.17
2019-01-27T16:34:39.867Z,7.53
2019-01-27T16:37:08.679Z,8.73
2019-01-27T16:39:37.876Z,18.65
2019-01-27T16:42:06.320Z,18.87
2019-01-27T16:44:34.770Z,8.75
2019-01-27T16:47:03.552Z,15.95
2019-01-27T16:49:32.006Z,9.80
2019-01-27T16:52:00.458Z,26.37
2019-01-27T16:54:28.894Z,23.25
2019-01-27T16:56:57.361Z,13.22
2019-01-27T16:59:26.297Z,25.68
2019-01-27T17:01:58.948Z,24.67
2019-01-27T17:04:25.557Z,6.85
2019-01-27T17:07:01.103Z,30.62
2019-01-27T17:09:32.455Z,12.98
2019-01-27T17:12:01.336Z,12.25
2019-01-27T17:14:36.817Z,14.50
2019-01-27T17:17:08.069Z,26.90
2019-01-27T17:19:36.895Z,24.40
2019-01-27T17:22:06.156Z,27.22
2019-01-27T17:24:34.602Z,7.70
2019-01-27T17:27:03.066Z,12.37
2019-01-27T17:29:31.477Z,8.05
2019-01-27T17:32:00.238Z,30.45
2019-01-27T17:34:29.034Z,9.63
2019-01-27T17:36:57.492Z,25.55
2019-01-27T17:39:26.164Z,22.15
2019-01-27T17:41:54.936Z,11.10
2019-01-27T17:44:23.374Z,8.73
2019-01-27T17:46:52.116Z,11.60
2019-01-27T17:49:20.630Z,21.93
2019-01-27T17:51:49.351Z,29.20
2019-01-27T17:54:17.798Z,16.93
2019-01-27T17:56:52.013Z,17.45
2019-01-27T17:59:37.166Z,9.00
2019-01-27T18:02:19.805Z,11.03
2019-01-27T18:05:05.550Z,8.50
2019-01-27T18:07:50.452Z,8.28
2019-01-27T18:10:31.353Z,10.95
2019-01-27T18:13:05.018Z,9.88
2019-01-27T18:15:34.603Z,10.30
2019-01-27T18:18:03.071Z,15.55
2019-01-27T18:20:31.758Z,15.23
2019-01-27T18:23:01.939Z,10.93
2019-01-27T18:25:30.855Z,12.85
2019-01-27T18:27:59.286Z,8.93
2019-01-27T18:30:27.721Z,6.08
2019-01-27T18:32:56.157Z,11.85
2019-01-27T18:35:26.054Z,8.95
2019-01-27T18:37:54.508Z,7.60
2019-01-27T18:40:23.171Z,6.03
2019-01-27T18:42:51.626Z,7.40
2019-01-27T18:45:20.091Z,7.03
2019-01-27T18:47:48.610Z,5.20
2019-01-27T18:50:18.359Z,4.78
2019-01-27T18:52:48.302Z,5.20
2019-01-27T18:55:40.286Z,4.10
2019-01-27T18:58:30.467Z,4.80
2019-01-27T19:01:15.761Z,5.00
2019-01-27T19:04:00.309Z,5.33
2019-01-27T19:06:48.109Z,6.00
2019-01-27T19:09:26.670Z,5.47
2019-01-27T19:12:05.588Z,6.28
2019-01-27T19:14:51.838Z,5.15
2019-01-27T19:17:31.458Z,5.53
2019-01-27T19:20:09.965Z,6.55
2019-01-27T19:23:03.743Z,5.60
2019-01-27T19:25:39.035Z,5.10
2019-01-27T19:28:15.665Z,6.50
2019-01-27T19:30:52.743Z,5.33
2019-01-27T19:33:30.052Z,5.92
2019-01-27T19:36:23.561Z,5.50
2019-01-27T19:39:18.784Z,7.92
2019-01-27T19:41:55.428Z,8.65
2019-01-27T19:44:31.133Z,9.28
2019-01-27T19:47:24.461Z,8.38
2019-01-27T19:50:09.553Z,8.90
2019-01-27T19:52:47.366Z,11.12
2019-01-27T19:55:22.093Z,12.75
2019-01-27T19:58:08.502Z,13.72
2019-01-27T20:00:55.096Z,9.25
2019-01-27T20:03:41.231Z,10.95
2019-01-27T20:06:14.819Z,11.25
2019-01-27T20:09:08.351Z,8.33
2019-01-27T20:11:49.621Z,9.93
2019-01-27T20:14:35.646Z,10.15
2019-01-27T20:17:11.278Z,11.00
2019-01-27T20:19:52.054Z,12.37
2019-01-27T20:22:28.605Z,12.43
2019-01-27T20:25:28.618Z,10.28
2019-01-27T20:28:15.387Z,12.40
2019-01-27T20:31:05.382Z,9.48
2019-01-27T20:33:51.859Z,10.35
2019-01-27T20:36:32.731Z,9.10
2019-01-27T20:39:12.758Z,12.10
2019-01-27T20:41:55.379Z,13.00
2019-01-27T20:44:52.077Z,10.70
2019-01-27T20:47:46.895Z,10.28
2019-01-27T20:50:26.250Z,11.83
2019-01-27T20:53:03.526Z,9.00
2019-01-27T20:55:45.994Z,8.65
2019-01-27T20:58:21.843Z,10.00
2019-01-27T21:00:58.242Z,10.80
2019-01-27T21:03:38.921Z,15.53
2019-01-27T21:06:22.652Z,17.23
2019-01-27T21:09:05.894Z,47.10
2019-01-27T21:12:02.364Z,19.75
2019-01-27T21:14:58.824Z,21.37
2019-01-27T21:17:43.927Z,29.57
2019-01-27T21:20:15.866Z,19.02
2019-01-27T21:22:44.933Z,16.05
2019-01-27T21:25:13.791Z,16.80
2019-01-27T21:27:42.246Z,14.18
2019-01-27T21:30:12.715Z,22.30
2019-01-27T21:32:41.150Z,9.98
2019-01-27T21:35:10.146Z,15.28
2019-01-27T21:37:38.625Z,13.68
2019-01-27T21:40:12.875Z,13.35
2019-01-27T21:42:47.259Z,11.28
2019-01-27T21:45:12.136Z,10.03
2019-01-27T21:47:40.939Z,13.18
2019-01-27T21:50:17.435Z,11.88
2019-01-27T21:52:45.873Z,29.92
2019-01-27T21:55:16.734Z,16.90
2019-01-27T21:57:45.182Z,20.23
2019-01-27T22:00:20.729Z,41.88
2019-01-27T22:02:49.437Z,14.73
2019-01-27T22:05:18.520Z,27.32
2019-01-27T22:07:46.963Z,17.05
2019-01-27T22:10:15.442Z,14.40
2019-01-27T22:12:43.912Z,15.15
2019-01-27T22:15:12.402Z,15.35
2019-01-27T22:17:41.162Z,31.00
2019-01-27T22:20:11.595Z,21.82
2019-01-27T22:22:40.390Z,29.42
2019-01-27T22:25:09.847Z,17.17
2019-01-27T22:27:38.285Z,15.98
2019-01-27T22:30:10.014Z,23.15
2019-01-27T22:32:38.438Z,14.07
2019-01-27T22:35:06.964Z,16.82
2019-01-27T22:37:35.536Z,13.30
2019-01-27T22:40:04.219Z,12.65
2019-01-27T22:42:32.677Z,12.75
2019-01-27T22:45:06.806Z,15.18
2019-01-27T22:47:36.423Z,13.85
2019-01-27T22:50:06.465Z,14.60
2019-01-27T22:52:36.628Z,18.27
2019-01-27T22:55:06.158Z,17.30
2019-01-27T22:57:34.957Z,17.57
2019-01-27T23:00:03.534Z,20.27
2019-01-27T23:02:32.215Z,17.85
2019-01-27T23:05:01.181Z,25.12
2019-01-27T23:07:32.212Z,21.12
2019-01-27T23:10:00.894Z,25.02
2019-01-27T23:12:29.818Z,28.80
2019-01-27T23:14:58.533Z,27.05
2019-01-27T23:17:26.981Z,22.30
2019-01-27T23:19:55.745Z,25.70
2019-01-27T23:22:24.613Z,31.93
2019-01-27T23:24:53.388Z,28.92
2019-01-27T23:27:21.957Z,35.33
2019-01-27T23:29:50.451Z,30.77
2019-01-27T23:32:19.205Z,41.50
2019-01-27T23:34:48.028Z,37.88
2019-01-27T23:37:16.467Z,29.25
2019-01-27T23:39:45.365Z,22.75
2019-01-27T23:42:16.775Z,22.48
2019-01-27T23:44:45.407Z,32.40
2019-01-27T23:47:14.228Z,32.48
2019-01-27T23:49:42.661Z,22.77
2019-01-27T23:52:11.085Z,29.23
2019-01-27T23:54:40.455Z,22.80
2019-01-27T23:57:08.918Z,30.80
2019-01-27T23:59:37.668Z,25.43
